sensor_id;sensor_type;location;lat;lon;timestamp;pressure;altitude;pressure_sealevel;temperature;humidity
20003;BME280;10162;41.600;23.806;2023-07-29T00:01:52;95011.44;;;16.86;88.35
20003;BME280;10162;41.600;23.806;2023-07-29T00:04:20;95018.09;;;16.60;89.73
20003;BME280;10162;41.600;23.806;2023-07-29T00:06:46;95014.88;;;16.46;90.24
20003;BME280;10162;41.600;23.806;2023-07-29T00:09:11;95028.03;;;16.98;86.23
20003;BME280;10162;41.600;23.806;2023-07-29T00:11:52;95022.66;;;16.65;89.05
20003;BME280;10162;41.600;23.806;2023-07-29T00:14:18;95015.44;;;16.60;87.84
20003;BME280;10162;41.600;23.806;2023-07-29T00:16:44;95023.25;;;16.55;88.20
20003;BME280;10162;41.600;23.806;2023-07-29T00:19:10;95018.28;;;16.59;88.26
20003;BME280;10162;41.600;23.806;2023-07-29T00:21:42;95019.91;;;16.48;88.87
20003;BME280;10162;41.600;23.806;2023-07-29T00:24:10;95023.75;;;16.80;87.29
20003;BME280;10162;41.600;23.806;2023-07-29T00:26:35;95009.97;;;16.38;89.93
20003;BME280;10162;41.600;23.806;2023-07-29T00:29:01;95013.50;;;16.44;89.17
20003;BME280;10162;41.600;23.806;2023-07-29T00:31:29;95018.84;;;16.09;92.71
20003;BME280;10162;41.600;23.806;2023-07-29T00:33:56;95019.19;;;15.89;94.71
20003;BME280;10162;41.600;23.806;2023-07-29T00:36:23;95010.00;;;16.27;92.66
20003;BME280;10162;41.600;23.806;2023-07-29T00:38:50;95009.38;;;16.60;89.56
20003;BME280;10162;41.600;23.806;2023-07-29T00:41:22;95014.13;;;16.34;92.52
20003;BME280;10162;41.600;23.806;2023-07-29T00:43:49;94994.50;;;16.19;91.99
20003;BME280;10162;41.600;23.806;2023-07-29T00:46:15;94989.88;;;15.62;94.14
20003;BME280;10162;41.600;23.806;2023-07-29T00:48:42;95005.66;;;16.09;93.53
20003;BME280;10162;41.600;23.806;2023-07-29T00:51:08;94997.50;;;16.22;91.93
20003;BME280;10162;41.600;23.806;2023-07-29T00:53:35;94995.22;;;16.66;89.22
20003;BME280;10162;41.600;23.806;2023-07-29T00:56:01;94986.31;;;16.43;88.19
20003;BME280;10162;41.600;23.806;2023-07-29T00:58:28;95017.75;;;16.45;89.01
20003;BME280;10162;41.600;23.806;2023-07-29T01:01:01;95010.63;;;15.94;91.87
20003;BME280;10162;41.600;23.806;2023-07-29T01:03:27;95011.03;;;16.14;91.90
20003;BME280;10162;41.600;23.806;2023-07-29T01:08:43;95018.97;;;15.79;94.32
20003;BME280;10162;41.600;23.806;2023-07-29T01:14:06;95020.78;;;16.13;92.04
20003;BME280;10162;41.600;23.806;2023-07-29T01:16:42;95018.75;;;15.81;95.64
20003;BME280;10162;41.600;23.806;2023-07-29T01:19:29;95012.16;;;15.37;97.57
20003;BME280;10162;41.600;23.806;2023-07-29T01:22:18;95022.88;;;15.77;96.80
20003;BME280;10162;41.600;23.806;2023-07-29T01:24:46;95013.28;;;16.45;91.23
20003;BME280;10162;41.600;23.806;2023-07-29T01:27:11;95002.34;;;15.79;93.67
20003;BME280;10162;41.600;23.806;2023-07-29T01:29:37;95010.91;;;15.51;95.01
20003;BME280;10162;41.600;23.806;2023-07-29T01:32:40;95015.06;;;16.17;92.91
20003;BME280;10162;41.600;23.806;2023-07-29T01:35:19;95004.06;;;15.61;96.84
20003;BME280;10162;41.600;23.806;2023-07-29T01:38:18;95012.78;;;15.62;96.13
20003;BME280;10162;41.600;23.806;2023-07-29T01:41:22;95013.06;;;15.30;99.68
20003;BME280;10162;41.600;23.806;2023-07-29T01:43:48;95007.44;;;14.85;100.00
20003;BME280;10162;41.600;23.806;2023-07-29T01:46:14;95006.09;;;15.48;99.19
20003;BME280;10162;41.600;23.806;2023-07-29T01:48:41;95000.72;;;15.43;98.56
20003;BME280;10162;41.600;23.806;2023-07-29T01:51:30;95017.72;;;15.17;100.00
20003;BME280;10162;41.600;23.806;2023-07-29T01:53:56;95002.66;;;15.36;99.77
20003;BME280;10162;41.600;23.806;2023-07-29T01:56:21;95016.09;;;14.74;100.00
20003;BME280;10162;41.600;23.806;2023-07-29T01:58:54;95002.66;;;15.47;97.98
20003;BME280;10162;41.600;23.806;2023-07-29T02:04:15;95018.25;;;15.37;99.87
20003;BME280;10162;41.600;23.806;2023-07-29T02:06:41;95010.47;;;15.01;100.00
20003;BME280;10162;41.600;23.806;2023-07-29T02:09:07;95021.47;;;15.09;100.00
20003;BME280;10162;41.600;23.806;2023-07-29T02:11:48;95013.25;;;15.17;100.00
20003;BME280;10162;41.600;23.806;2023-07-29T02:14:16;95012.25;;;15.30;100.00
20003;BME280;10162;41.600;23.806;2023-07-29T02:16:41;95017.38;;;15.13;100.00
20003;BME280;10162;41.600;23.806;2023-07-29T02:19:09;95015.31;;;15.15;100.00
20003;BME280;10162;41.600;23.806;2023-07-29T02:22:10;95017.78;;;14.99;100.00
20003;BME280;10162;41.600;23.806;2023-07-29T02:24:38;94997.72;;;15.39;100.00
20003;BME280;10162;41.600;23.806;2023-07-29T02:27:04;95012.88;;;15.55;100.00
20003;BME280;10162;41.600;23.806;2023-07-29T02:29:31;95008.00;;;15.17;100.00
20003;BME280;10162;41.600;23.806;2023-07-29T02:32:35;95023.38;;;15.44;100.00
20003;BME280;10162;41.600;23.806;2023-07-29T02:35:02;95008.59;;;14.60;100.00
20003;BME280;10162;41.600;23.806;2023-07-29T02:37:28;95014.13;;;14.70;100.00
20003;BME280;10162;41.600;23.806;2023-07-29T02:39:53;95016.50;;;14.89;100.00
20003;BME280;10162;41.600;23.806;2023-07-29T02:42:35;95001.94;;;14.87;100.00
20003;BME280;10162;41.600;23.806;2023-07-29T02:45:03;95008.50;;;14.66;100.00
20003;BME280;10162;41.600;23.806;2023-07-29T02:47:29;95020.03;;;14.83;100.00
20003;BME280;10162;41.600;23.806;2023-07-29T02:49:55;95012.25;;;14.59;100.00
20003;BME280;10162;41.600;23.806;2023-07-29T02:52:20;95007.16;;;14.45;100.00
20003;BME280;10162;41.600;23.806;2023-07-29T02:54:46;95027.69;;;14.85;100.00
20003;BME280;10162;41.600;23.806;2023-07-29T02:57:13;95024.34;;;14.78;100.00
20003;BME280;10162;41.600;23.806;2023-07-29T02:59:39;95025.25;;;14.54;100.00
20003;BME280;10162;41.600;23.806;2023-07-29T03:02:14;95011.91;;;14.85;100.00
20003;BME280;10162;41.600;23.806;2023-07-29T03:04:42;95018.63;;;14.33;100.00
20003;BME280;10162;41.600;23.806;2023-07-29T03:07:07;95030.84;;;14.75;100.00
20003;BME280;10162;41.600;23.806;2023-07-29T03:09:33;95018.09;;;14.24;100.00
20003;BME280;10162;41.600;23.806;2023-07-29T03:12:35;95034.84;;;14.48;100.00
20003;BME280;10162;41.600;23.806;2023-07-29T03:15:01;95036.59;;;14.18;100.00
20003;BME280;10162;41.600;23.806;2023-07-29T03:17:27;95035.91;;;14.77;100.00
20003;BME280;10162;41.600;23.806;2023-07-29T03:19:53;95045.88;;;14.75;100.00
20003;BME280;10162;41.600;23.806;2023-07-29T03:22:55;95043.91;;;14.82;100.00
20003;BME280;10162;41.600;23.806;2023-07-29T03:25:22;95038.09;;;14.25;100.00
20003;BME280;10162;41.600;23.806;2023-07-29T03:27:48;95039.56;;;14.21;100.00
20003;BME280;10162;41.600;23.806;2023-07-29T03:30:15;95048.34;;;14.33;100.00
20003;BME280;10162;41.600;23.806;2023-07-29T03:32:43;95030.78;;;14.64;100.00
20003;BME280;10162;41.600;23.806;2023-07-29T03:35:11;95042.88;;;14.17;100.00
20003;BME280;10162;41.600;23.806;2023-07-29T03:37:37;95050.88;;;14.76;100.00
20003;BME280;10162;41.600;23.806;2023-07-29T03:40:03;95050.91;;;14.58;100.00
20003;BME280;10162;41.600;23.806;2023-07-29T03:42:54;95054.25;;;14.65;100.00
20003;BME280;10162;41.600;23.806;2023-07-29T03:45:21;95046.97;;;14.49;100.00
20003;BME280;10162;41.600;23.806;2023-07-29T03:47:47;95040.63;;;14.38;100.00
20003;BME280;10162;41.600;23.806;2023-07-29T03:50:13;95052.75;;;14.39;100.00
20003;BME280;10162;41.600;23.806;2023-07-29T03:55:47;95057.34;;;14.44;100.00
20003;BME280;10162;41.600;23.806;2023-07-29T03:58:12;95055.16;;;14.41;100.00
20003;BME280;10162;41.600;23.806;2023-07-29T04:01:08;95062.97;;;14.66;100.00
20003;BME280;10162;41.600;23.806;2023-07-29T04:03:35;95066.56;;;15.01;100.00
20003;BME280;10162;41.600;23.806;2023-07-29T04:06:01;95055.13;;;15.07;100.00
20003;BME280;10162;41.600;23.806;2023-07-29T04:08:28;95067.47;;;14.77;100.00
20003;BME280;10162;41.600;23.806;2023-07-29T04:11:25;95063.91;;;15.31;100.00
20003;BME280;10162;41.600;23.806;2023-07-29T04:13:51;95068.41;;;15.42;100.00
20003;BME280;10162;41.600;23.806;2023-07-29T04:16:17;95063.31;;;15.59;100.00
20003;BME280;10162;41.600;23.806;2023-07-29T04:18:43;95065.88;;;15.89;100.00
20003;BME280;10162;41.600;23.806;2023-07-29T04:21:41;95078.25;;;16.00;100.00
20003;BME280;10162;41.600;23.806;2023-07-29T04:24:06;95077.31;;;16.18;100.00
20003;BME280;10162;41.600;23.806;2023-07-29T04:26:32;95082.34;;;16.31;100.00
20003;BME280;10162;41.600;23.806;2023-07-29T04:28:58;95083.16;;;16.43;98.86
20003;BME280;10162;41.600;23.806;2023-07-29T04:31:37;95080.22;;;16.91;96.58
20003;BME280;10162;41.600;23.806;2023-07-29T04:34:04;95074.56;;;16.87;96.44
20003;BME280;10162;41.600;23.806;2023-07-29T04:36:31;95078.00;;;17.00;96.03
20003;BME280;10162;41.600;23.806;2023-07-29T04:38:58;95084.44;;;17.20;95.44
20003;BME280;10162;41.600;23.806;2023-07-29T04:41:33;95089.06;;;17.42;92.25
20003;BME280;10162;41.600;23.806;2023-07-29T04:44:03;95080.00;;;17.54;89.97
20003;BME280;10162;41.600;23.806;2023-07-29T04:46:29;95081.13;;;17.70;88.43
20003;BME280;10162;41.600;23.806;2023-07-29T04:48:54;95075.59;;;17.88;88.26
20003;BME280;10162;41.600;23.806;2023-07-29T04:51:21;95085.75;;;18.51;84.11
20003;BME280;10162;41.600;23.806;2023-07-29T04:53:48;95089.00;;;18.37;83.96
20003;BME280;10162;41.600;23.806;2023-07-29T04:56:13;95082.22;;;17.91;86.12
20003;BME280;10162;41.600;23.806;2023-07-29T04:58:39;95076.41;;;18.05;85.24
20003;BME280;10162;41.600;23.806;2023-07-29T05:01:14;95075.47;;;18.33;84.37
20003;BME280;10162;41.600;23.806;2023-07-29T05:03:40;95087.34;;;18.69;82.33
20003;BME280;10162;41.600;23.806;2023-07-29T05:06:06;95076.75;;;18.69;82.18
20003;BME280;10162;41.600;23.806;2023-07-29T05:08:32;95079.81;;;19.05;79.50
20003;BME280;10162;41.600;23.806;2023-07-29T05:11:14;95100.31;;;19.14;79.04
20003;BME280;10162;41.600;23.806;2023-07-29T05:13:40;95095.28;;;18.91;79.39
20003;BME280;10162;41.600;23.806;2023-07-29T05:16:08;95089.84;;;19.24;78.66
20003;BME280;10162;41.600;23.806;2023-07-29T05:18:34;95099.81;;;19.39;78.11
20003;BME280;10162;41.600;23.806;2023-07-29T05:24:22;95098.25;;;19.65;76.61
20003;BME280;10162;41.600;23.806;2023-07-29T05:26:49;95106.88;;;19.55;78.46
20003;BME280;10162;41.600;23.806;2023-07-29T05:29:16;95108.72;;;19.82;77.59
20003;BME280;10162;41.600;23.806;2023-07-29T05:34:51;95107.53;;;19.67;77.29
20003;BME280;10162;41.600;23.806;2023-07-29T05:37:17;95103.19;;;19.88;76.49
20003;BME280;10162;41.600;23.806;2023-07-29T05:39:42;95106.91;;;19.87;75.53
20003;BME280;10162;41.600;23.806;2023-07-29T05:42:14;95104.75;;;20.16;75.11
20003;BME280;10162;41.600;23.806;2023-07-29T05:44:40;95108.25;;;20.21;75.27
20003;BME280;10162;41.600;23.806;2023-07-29T05:47:06;95100.00;;;20.23;73.93
20003;BME280;10162;41.600;23.806;2023-07-29T05:49:33;95116.44;;;20.57;72.36
20003;BME280;10162;41.600;23.806;2023-07-29T05:52:01;95116.78;;;20.66;72.56
20003;BME280;10162;41.600;23.806;2023-07-29T05:54:28;95105.47;;;20.90;71.08
20003;BME280;10162;41.600;23.806;2023-07-29T05:56:53;95119.31;;;20.97;70.14
20003;BME280;10162;41.600;23.806;2023-07-29T05:59:26;95127.06;;;21.09;69.96
20003;BME280;10162;41.600;23.806;2023-07-29T06:02:00;95119.03;;;20.89;69.91
20003;BME280;10162;41.600;23.806;2023-07-29T06:04:25;95104.56;;;20.65;70.33
20003;BME280;10162;41.600;23.806;2023-07-29T06:06:51;95116.59;;;20.82;69.44
20003;BME280;10162;41.600;23.806;2023-07-29T06:09:17;95121.47;;;21.00;69.19
20003;BME280;10162;41.600;23.806;2023-07-29T06:11:43;95128.22;;;21.18;68.29
20003;BME280;10162;41.600;23.806;2023-07-29T06:14:08;95126.88;;;21.16;67.95
20003;BME280;10162;41.600;23.806;2023-07-29T06:16:34;95117.41;;;21.60;64.68
20003;BME280;10162;41.600;23.806;2023-07-29T06:19:01;95120.38;;;21.79;64.52
20003;BME280;10162;41.600;23.806;2023-07-29T06:21:26;95126.44;;;21.59;64.76
20003;BME280;10162;41.600;23.806;2023-07-29T06:23:52;95120.91;;;21.76;64.67
20003;BME280;10162;41.600;23.806;2023-07-29T06:26:18;95120.69;;;22.13;62.74
20003;BME280;10162;41.600;23.806;2023-07-29T06:28:44;95120.16;;;22.11;61.29
20003;BME280;10162;41.600;23.806;2023-07-29T06:31:10;95101.75;;;22.35;61.50
20003;BME280;10162;41.600;23.806;2023-07-29T06:33:36;95107.91;;;22.05;61.02
20003;BME280;10162;41.600;23.806;2023-07-29T06:36:02;95094.03;;;22.43;58.67
20003;BME280;10162;41.600;23.806;2023-07-29T06:38:29;95100.09;;;22.69;58.38
20003;BME280;10162;41.600;23.806;2023-07-29T06:40:54;95091.25;;;22.99;56.51
20003;BME280;10162;41.600;23.806;2023-07-29T06:43:20;95093.91;;;22.99;55.36
20003;BME280;10162;41.600;23.806;2023-07-29T06:45:46;95096.38;;;22.65;56.97
20003;BME280;10162;41.600;23.806;2023-07-29T06:48:12;95090.03;;;23.25;55.93
20003;BME280;10162;41.600;23.806;2023-07-29T06:50:39;95088.56;;;23.53;55.29
20003;BME280;10162;41.600;23.806;2023-07-29T06:53:06;95088.16;;;23.80;53.70
20003;BME280;10162;41.600;23.806;2023-07-29T06:55:32;95089.38;;;23.54;53.44
20003;BME280;10162;41.600;23.806;2023-07-29T06:57:59;95086.63;;;23.69;52.82
20003;BME280;10162;41.600;23.806;2023-07-29T07:00:24;95079.63;;;23.29;53.52
20003;BME280;10162;41.600;23.806;2023-07-29T07:02:50;95073.09;;;23.55;52.91
20003;BME280;10162;41.600;23.806;2023-07-29T07:05:16;95088.25;;;23.65;52.26
20003;BME280;10162;41.600;23.806;2023-07-29T07:07:42;95066.63;;;24.00;51.53
20003;BME280;10162;41.600;23.806;2023-07-29T07:10:08;95068.88;;;23.49;52.26
20003;BME280;10162;41.600;23.806;2023-07-29T07:12:34;95071.41;;;23.69;52.63
20003;BME280;10162;41.600;23.806;2023-07-29T07:15:00;95072.53;;;24.31;50.92
20003;BME280;10162;41.600;23.806;2023-07-29T07:17:26;95069.91;;;24.50;50.80
20003;BME280;10162;41.600;23.806;2023-07-29T07:19:52;95078.06;;;24.63;48.77
20003;BME280;10162;41.600;23.806;2023-07-29T07:22:22;95062.16;;;24.77;48.73
20003;BME280;10162;41.600;23.806;2023-07-29T07:24:47;95063.50;;;24.75;48.56
20003;BME280;10162;41.600;23.806;2023-07-29T07:27:13;95067.28;;;24.97;47.52
20003;BME280;10162;41.600;23.806;2023-07-29T07:29:39;95057.75;;;24.86;46.95
20003;BME280;10162;41.600;23.806;2023-07-29T07:32:05;95064.31;;;24.75;47.95
20003;BME280;10162;41.600;23.806;2023-07-29T07:34:31;95058.34;;;25.07;47.11
20003;BME280;10162;41.600;23.806;2023-07-29T07:36:59;95057.06;;;25.42;47.12
20003;BME280;10162;41.600;23.806;2023-07-29T07:39:26;95061.75;;;24.65;47.18
20003;BME280;10162;41.600;23.806;2023-07-29T07:41:53;95057.78;;;25.47;46.60
20003;BME280;10162;41.600;23.806;2023-07-29T07:44:19;95059.44;;;25.06;46.39
20003;BME280;10162;41.600;23.806;2023-07-29T07:46:46;95053.22;;;25.48;45.89
20003;BME280;10162;41.600;23.806;2023-07-29T07:49:12;95049.97;;;25.88;45.06
20003;BME280;10162;41.600;23.806;2023-07-29T07:51:40;95048.69;;;25.48;45.99
20003;BME280;10162;41.600;23.806;2023-07-29T07:54:06;95037.81;;;25.02;45.49
20003;BME280;10162;41.600;23.806;2023-07-29T07:56:32;95041.31;;;25.78;45.72
20003;BME280;10162;41.600;23.806;2023-07-29T07:58:57;95044.88;;;26.06;45.33
20003;BME280;10162;41.600;23.806;2023-07-29T08:01:23;95038.88;;;26.27;45.02
20003;BME280;10162;41.600;23.806;2023-07-29T08:03:49;95038.91;;;26.55;43.27
20003;BME280;10162;41.600;23.806;2023-07-29T08:06:15;95033.78;;;26.58;43.45
20003;BME280;10162;41.600;23.806;2023-07-29T08:08:40;95032.47;;;26.42;41.51
20003;BME280;10162;41.600;23.806;2023-07-29T08:11:06;95026.53;;;26.59;42.49
20003;BME280;10162;41.600;23.806;2023-07-29T08:13:32;95027.25;;;26.92;42.49
20003;BME280;10162;41.600;23.806;2023-07-29T08:15:59;95012.91;;;27.10;42.28
20003;BME280;10162;41.600;23.806;2023-07-29T08:18:24;95005.25;;;26.62;43.58
20003;BME280;10162;41.600;23.806;2023-07-29T08:20:59;95016.84;;;27.26;42.79
20003;BME280;10162;41.600;23.806;2023-07-29T08:23:33;95009.78;;;27.30;41.82
20003;BME280;10162;41.600;23.806;2023-07-29T08:26:03;95007.69;;;27.63;41.72
20003;BME280;10162;41.600;23.806;2023-07-29T08:28:36;95005.13;;;27.80;40.86
20003;BME280;10162;41.600;23.806;2023-07-29T08:31:03;95003.06;;;27.41;40.79
20003;BME280;10162;41.600;23.806;2023-07-29T08:33:30;95003.38;;;27.53;40.24
20003;BME280;10162;41.600;23.806;2023-07-29T08:35:56;94998.78;;;27.54;40.10
20003;BME280;10162;41.600;23.806;2023-07-29T08:38:21;95006.59;;;27.64;39.15
20003;BME280;10162;41.600;23.806;2023-07-29T08:43:34;95007.19;;;28.28;36.76
20003;BME280;10162;41.600;23.806;2023-07-29T08:46:02;95005.16;;;28.33;37.20
20003;BME280;10162;41.600;23.806;2023-07-29T08:48:43;95002.81;;;27.87;36.04
20003;BME280;10162;41.600;23.806;2023-07-29T08:51:10;95005.09;;;27.94;38.03
20003;BME280;10162;41.600;23.806;2023-07-29T08:53:37;95003.63;;;27.88;37.58
20003;BME280;10162;41.600;23.806;2023-07-29T08:56:03;94989.19;;;28.28;37.49
20003;BME280;10162;41.600;23.806;2023-07-29T08:58:31;94997.81;;;28.87;36.50
20003;BME280;10162;41.600;23.806;2023-07-29T09:00:57;94981.47;;;28.44;33.35
20003;BME280;10162;41.600;23.806;2023-07-29T09:03:23;94986.88;;;28.44;32.58
20003;BME280;10162;41.600;23.806;2023-07-29T09:05:50;94983.50;;;28.30;33.78
20003;BME280;10162;41.600;23.806;2023-07-29T09:08:16;94982.78;;;28.95;33.83
20003;BME280;10162;41.600;23.806;2023-07-29T09:10:43;94978.69;;;29.14;32.79
20003;BME280;10162;41.600;23.806;2023-07-29T09:13:08;94967.78;;;29.20;33.03
20003;BME280;10162;41.600;23.806;2023-07-29T09:15:37;94976.78;;;29.24;33.83
20003;BME280;10162;41.600;23.806;2023-07-29T09:20:37;94959.72;;;29.45;32.27
20003;BME280;10162;41.600;23.806;2023-07-29T09:23:03;94952.88;;;29.22;32.06
20003;BME280;10162;41.600;23.806;2023-07-29T09:25:30;94958.38;;;30.12;30.66
20003;BME280;10162;41.600;23.806;2023-07-29T09:28:00;94946.84;;;29.85;30.57
20003;BME280;10162;41.600;23.806;2023-07-29T09:30:27;94956.66;;;29.98;30.46
20003;BME280;10162;41.600;23.806;2023-07-29T09:32:58;94953.78;;;30.12;30.51
20003;BME280;10162;41.600;23.806;2023-07-29T09:35:28;94944.63;;;30.43;31.55
20003;BME280;10162;41.600;23.806;2023-07-29T09:37:54;94934.56;;;30.22;31.50
20003;BME280;10162;41.600;23.806;2023-07-29T09:40:20;94940.16;;;30.47;31.55
20003;BME280;10162;41.600;23.806;2023-07-29T09:42:54;94917.09;;;30.28;31.04
20003;BME280;10162;41.600;23.806;2023-07-29T09:47:47;94948.84;;;30.90;31.11
20003;BME280;10162;41.600;23.806;2023-07-29T09:50:12;94927.66;;;31.01;29.64
20003;BME280;10162;41.600;23.806;2023-07-29T09:52:38;94943.13;;;30.92;29.13
20003;BME280;10162;41.600;23.806;2023-07-29T09:55:05;94934.75;;;31.14;28.18
20003;BME280;10162;41.600;23.806;2023-07-29T09:57:33;94918.47;;;30.93;29.67
20003;BME280;10162;41.600;23.806;2023-07-29T09:59:59;94918.94;;;30.95;28.73
20003;BME280;10162;41.600;23.806;2023-07-29T10:02:26;94918.06;;;30.83;28.93
20003;BME280;10162;41.600;23.806;2023-07-29T10:04:55;94916.25;;;31.04;28.15
20003;BME280;10162;41.600;23.806;2023-07-29T10:07:21;94919.13;;;31.19;28.90
20003;BME280;10162;41.600;23.806;2023-07-29T10:09:48;94917.78;;;31.46;27.41
20003;BME280;10162;41.600;23.806;2023-07-29T10:12:17;94906.03;;;31.09;28.74
20003;BME280;10162;41.600;23.806;2023-07-29T10:14:46;94906.31;;;31.49;29.08
20003;BME280;10162;41.600;23.806;2023-07-29T10:17:15;94913.38;;;31.63;29.64
20003;BME280;10162;41.600;23.806;2023-07-29T10:19:43;94901.94;;;31.57;28.06
20003;BME280;10162;41.600;23.806;2023-07-29T10:22:11;94907.84;;;31.38;28.67
20003;BME280;10162;41.600;23.806;2023-07-29T10:24:43;94903.41;;;31.54;29.03
20003;BME280;10162;41.600;23.806;2023-07-29T10:27:11;94899.78;;;31.50;29.39
20003;BME280;10162;41.600;23.806;2023-07-29T10:29:42;94895.25;;;31.42;28.29
20003;BME280;10162;41.600;23.806;2023-07-29T10:32:11;94887.38;;;31.37;28.48
20003;BME280;10162;41.600;23.806;2023-07-29T10:34:41;94884.97;;;31.89;28.81
20003;BME280;10162;41.600;23.806;2023-07-29T10:37:08;94886.34;;;31.63;28.48
20003;BME280;10162;41.600;23.806;2023-07-29T10:39:39;94869.72;;;31.52;28.66
20003;BME280;10162;41.600;23.806;2023-07-29T10:42:08;94871.13;;;31.58;27.50
20003;BME280;10162;41.600;23.806;2023-07-29T10:47:21;94871.31;;;31.20;27.54
20003;BME280;10162;41.600;23.806;2023-07-29T10:49:53;94858.66;;;31.66;28.45
20003;BME280;10162;41.600;23.806;2023-07-29T10:55:02;94854.19;;;31.82;28.17
20003;BME280;10162;41.600;23.806;2023-07-29T10:57:37;94852.97;;;32.04;28.33
20003;BME280;10162;41.600;23.806;2023-07-29T11:00:05;94850.31;;;32.28;28.57
20003;BME280;10162;41.600;23.806;2023-07-29T11:02:33;94854.38;;;32.34;27.74
20003;BME280;10162;41.600;23.806;2023-07-29T11:05:22;94840.66;;;31.82;27.79
20003;BME280;10162;41.600;23.806;2023-07-29T11:07:48;94836.88;;;32.19;27.99
20003;BME280;10162;41.600;23.806;2023-07-29T11:10:15;94832.44;;;32.03;27.98
20003;BME280;10162;41.600;23.806;2023-07-29T11:17:53;94841.63;;;32.47;28.50
20003;BME280;10162;41.600;23.806;2023-07-29T11:20:30;94832.00;;;31.88;28.39
20003;BME280;10162;41.600;23.806;2023-07-29T11:23:01;94839.38;;;32.12;28.00
20003;BME280;10162;41.600;23.806;2023-07-29T11:25:29;94839.25;;;32.69;27.93
20003;BME280;10162;41.600;23.806;2023-07-29T11:27:57;94824.72;;;32.25;28.06
20003;BME280;10162;41.600;23.806;2023-07-29T11:30:25;94836.88;;;32.44;27.50
20003;BME280;10162;41.600;23.806;2023-07-29T11:32:55;94832.34;;;32.48;26.70
20003;BME280;10162;41.600;23.806;2023-07-29T11:35:21;94831.19;;;32.85;27.55
20003;BME280;10162;41.600;23.806;2023-07-29T11:37:50;94831.41;;;32.92;27.26
20003;BME280;10162;41.600;23.806;2023-07-29T11:40:20;94831.53;;;32.84;27.14
20003;BME280;10162;41.600;23.806;2023-07-29T11:42:47;94816.97;;;32.88;28.25
20003;BME280;10162;41.600;23.806;2023-07-29T11:45:15;94801.22;;;32.66;27.56
20003;BME280;10162;41.600;23.806;2023-07-29T11:47:41;94818.63;;;32.93;26.57
20003;BME280;10162;41.600;23.806;2023-07-29T11:50:09;94810.03;;;32.51;27.43
20003;BME280;10162;41.600;23.806;2023-07-29T11:56:29;94790.47;;;32.17;27.43
20003;BME280;10162;41.600;23.806;2023-07-29T11:58:56;94794.91;;;32.50;27.90
20003;BME280;10162;41.600;23.806;2023-07-29T12:05:17;94789.56;;;33.17;27.58
20003;BME280;10162;41.600;23.806;2023-07-29T12:07:44;94800.03;;;33.47;26.33
20003;BME280;10162;41.600;23.806;2023-07-29T12:10:10;94768.81;;;33.37;26.07
20003;BME280;10162;41.600;23.806;2023-07-29T12:16:31;94771.81;;;33.63;27.96
20003;BME280;10162;41.600;23.806;2023-07-29T12:19:06;94780.69;;;33.76;27.25
20003;BME280;10162;41.600;23.806;2023-07-29T12:25:26;94770.81;;;33.25;26.93
20003;BME280;10162;41.600;23.806;2023-07-29T12:27:52;94761.16;;;32.99;27.78
20003;BME280;10162;41.600;23.806;2023-07-29T12:30:24;94772.25;;;33.66;26.13
20003;BME280;10162;41.600;23.806;2023-07-29T12:32:54;94769.31;;;33.71;25.31
20003;BME280;10162;41.600;23.806;2023-07-29T12:35:20;94741.19;;;34.26;25.99
20003;BME280;10162;41.600;23.806;2023-07-29T12:37:45;94764.63;;;34.88;27.42
20003;BME280;10162;41.600;23.806;2023-07-29T12:40:21;94755.59;;;34.30;26.01
20003;BME280;10162;41.600;23.806;2023-07-29T12:42:49;94739.81;;;34.51;26.68
20003;BME280;10162;41.600;23.806;2023-07-29T12:45:16;94753.63;;;34.46;25.90
20003;BME280;10162;41.600;23.806;2023-07-29T12:47:44;94723.25;;;34.06;26.21
20003;BME280;10162;41.600;23.806;2023-07-29T12:50:11;94754.66;;;34.07;27.78
20003;BME280;10162;41.600;23.806;2023-07-29T12:56:33;94745.84;;;33.78;29.21
20003;BME280;10162;41.600;23.806;2023-07-29T12:59:00;94733.78;;;33.60;28.69
20003;BME280;10162;41.600;23.806;2023-07-29T13:05:20;94748.22;;;33.80;29.23
20003;BME280;10162;41.600;23.806;2023-07-29T13:07:47;94741.84;;;33.88;28.87
20003;BME280;10162;41.600;23.806;2023-07-29T13:10:13;94760.00;;;33.56;29.00
20003;BME280;10162;41.600;23.806;2023-07-29T13:16:33;94731.38;;;33.27;30.18
20003;BME280;10162;41.600;23.806;2023-07-29T13:22:54;94729.91;;;33.92;29.18
20003;BME280;10162;41.600;23.806;2023-07-29T13:25:19;94746.25;;;34.27;28.36
20003;BME280;10162;41.600;23.806;2023-07-29T13:27:45;94742.31;;;34.25;27.97
20003;BME280;10162;41.600;23.806;2023-07-29T13:30:12;94757.34;;;35.31;26.98
20003;BME280;10162;41.600;23.806;2023-07-29T13:36:33;94729.72;;;35.97;27.32
20003;BME280;10162;41.600;23.806;2023-07-29T13:38:59;94733.16;;;35.06;27.64
20003;BME280;10162;41.600;23.806;2023-07-29T13:45:20;94735.91;;;32.95;30.23
20003;BME280;10162;41.600;23.806;2023-07-29T13:47:48;94712.03;;;32.57;30.22
20003;BME280;10162;41.600;23.806;2023-07-29T13:50:16;94724.56;;;32.90;29.83
20003;BME280;10162;41.600;23.806;2023-07-29T13:52:42;94717.75;;;32.28;30.86
20003;BME280;10162;41.600;23.806;2023-07-29T13:55:08;94714.63;;;31.89;31.83
20003;BME280;10162;41.600;23.806;2023-07-29T13:57:34;94749.47;;;32.95;30.98
20003;BME280;10162;41.600;23.806;2023-07-29T14:00:01;94753.00;;;32.84;29.65
20003;BME280;10162;41.600;23.806;2023-07-29T14:06:32;94736.56;;;32.00;30.70
20003;BME280;10162;41.600;23.806;2023-07-29T14:08:57;94718.63;;;31.47;30.07
20003;BME280;10162;41.600;23.806;2023-07-29T14:15:17;94746.31;;;32.53;29.20
20003;BME280;10162;41.600;23.806;2023-07-29T14:17:44;94725.28;;;31.49;30.55
20003;BME280;10162;41.600;23.806;2023-07-29T14:20:10;94726.81;;;31.26;31.44